sensor_id;sensor_type;location;lat;lon;timestamp;pressure;altitude;pressure_sealevel;temperature;humidity
65760;BME280;52496;51.082;5.066;2024-03-22T00:02:12;102107.25;;;11.96;100.00
65760;BME280;52496;51.082;5.066;2024-03-22T00:04:42;102101.88;;;11.96;100.00
65760;BME280;52496;51.082;5.066;2024-03-22T00:07:13;102093.69;;;11.97;100.00
65760;BME280;52496;51.082;5.066;2024-03-22T00:09:43;102098.88;;;11.99;100.00
65760;BME280;52496;51.082;5.066;2024-03-22T00:12:14;102094.38;;;11.99;100.00
65760;BME280;52496;51.082;5.066;2024-03-22T00:14:44;102089.84;;;12.00;100.00
65760;BME280;52496;51.082;5.066;2024-03-22T00:17:14;102094.03;;;12.02;100.00
65760;BME280;52496;51.082;5.066;2024-03-22T00:19:45;102077.97;;;12.02;100.00
65760;BME280;52496;51.082;5.066;2024-03-22T00:22:15;102084.16;;;12.03;100.00
65760;BME280;52496;51.082;5.066;2024-03-22T00:24:46;102075.94;;;12.04;100.00
65760;BME280;52496;51.082;5.066;2024-03-22T00:27:16;102079.13;;;12.08;100.00
65760;BME280;52496;51.082;5.066;2024-03-22T00:29:47;102070.94;;;12.09;100.00
65760;BME280;52496;51.082;5.066;2024-03-22T00:32:17;102069.06;;;12.10;100.00
65760;BME280;52496;51.082;5.066;2024-03-22T00:34:47;102066.25;;;12.11;100.00
65760;BME280;52496;51.082;5.066;2024-03-22T00:37:18;102069.75;;;12.12;100.00
65760;BME280;52496;51.082;5.066;2024-03-22T00:39:48;102073.09;;;12.14;100.00
65760;BME280;52496;51.082;5.066;2024-03-22T00:42:19;102075.44;;;12.17;100.00
65760;BME280;52496;51.082;5.066;2024-03-22T00:44:49;102065.59;;;12.18;100.00
65760;BME280;52496;51.082;5.066;2024-03-22T00:47:19;102067.25;;;12.19;100.00
65760;BME280;52496;51.082;5.066;2024-03-22T00:49:50;102069.75;;;12.20;100.00
65760;BME280;52496;51.082;5.066;2024-03-22T00:52:20;102060.03;;;12.19;100.00
65760;BME280;52496;51.082;5.066;2024-03-22T00:54:51;102056.34;;;12.20;100.00
65760;BME280;52496;51.082;5.066;2024-03-22T00:57:21;102055.38;;;12.21;100.00
65760;BME280;52496;51.082;5.066;2024-03-22T00:59:52;102050.84;;;12.22;100.00
65760;BME280;52496;51.082;5.066;2024-03-22T01:02:22;102048.84;;;12.24;100.00
65760;BME280;52496;51.082;5.066;2024-03-22T01:04:53;102040.59;;;12.25;100.00
65760;BME280;52496;51.082;5.066;2024-03-22T01:07:23;102026.19;;;12.26;100.00
65760;BME280;52496;51.082;5.066;2024-03-22T01:09:54;102017.16;;;12.27;100.00
65760;BME280;52496;51.082;5.066;2024-03-22T01:12:25;102015.31;;;12.28;100.00
65760;BME280;52496;51.082;5.066;2024-03-22T01:14:55;102012.63;;;12.28;100.00
65760;BME280;52496;51.082;5.066;2024-03-22T01:17:26;102009.75;;;12.29;100.00
65760;BME280;52496;51.082;5.066;2024-03-22T01:19:56;102000.72;;;12.30;100.00
65760;BME280;52496;51.082;5.066;2024-03-22T01:22:26;102006.09;;;12.30;100.00
65760;BME280;52496;51.082;5.066;2024-03-22T01:24:57;101998.69;;;12.32;100.00
65760;BME280;52496;51.082;5.066;2024-03-22T01:27:27;102004.91;;;12.33;100.00
65760;BME280;52496;51.082;5.066;2024-03-22T01:29:58;102000.38;;;12.33;100.00
65760;BME280;52496;51.082;5.066;2024-03-22T01:32:28;101996.69;;;12.34;100.00
65760;BME280;52496;51.082;5.066;2024-03-22T01:34:59;101993.00;;;12.35;100.00
65760;BME280;52496;51.082;5.066;2024-03-22T01:37:29;101985.97;;;12.34;100.00
65760;BME280;52496;51.082;5.066;2024-03-22T01:40:00;101988.81;;;12.33;100.00
65760;BME280;52496;51.082;5.066;2024-03-22T01:42:30;101981.94;;;12.30;100.00
65760;BME280;52496;51.082;5.066;2024-03-22T01:45:01;101983.78;;;12.30;100.00
65760;BME280;52496;51.082;5.066;2024-03-22T01:47:32;101983.78;;;12.30;100.00
65760;BME280;52496;51.082;5.066;2024-03-22T01:50:03;101981.44;;;12.27;100.00
65760;BME280;52496;51.082;5.066;2024-03-22T01:52:35;101986.97;;;12.25;100.00
65760;BME280;52496;51.082;5.066;2024-03-22T01:55:07;101984.63;;;12.22;100.00
65760;BME280;52496;51.082;5.066;2024-03-22T01:57:38;101985.63;;;12.21;100.00
65760;BME280;52496;51.082;5.066;2024-03-22T02:00:09;101986.81;;;12.19;100.00
65760;BME280;52496;51.082;5.066;2024-03-22T02:02:39;101981.78;;;12.15;100.00
65760;BME280;52496;51.082;5.066;2024-03-22T02:05:14;101967.03;;;12.11;100.00
65760;BME280;52496;51.082;5.066;2024-03-22T02:07:46;101968.34;;;12.07;100.00
65760;BME280;52496;51.082;5.066;2024-03-22T02:10:17;101962.50;;;12.04;100.00
65760;BME280;52496;51.082;5.066;2024-03-22T02:12:47;101953.13;;;12.00;100.00
65760;BME280;52496;51.082;5.066;2024-03-22T02:15:18;101953.78;;;11.93;100.00
65760;BME280;52496;51.082;5.066;2024-03-22T02:17:49;101960.44;;;11.89;100.00
65760;BME280;52496;51.082;5.066;2024-03-22T02:20:19;101965.47;;;11.84;100.00
65760;BME280;52496;51.082;5.066;2024-03-22T02:22:49;101953.38;;;11.80;100.00
65760;BME280;52496;51.082;5.066;2024-03-22T02:25:20;101949.50;;;11.75;100.00
65760;BME280;52496;51.082;5.066;2024-03-22T02:27:50;101957.88;;;11.71;100.00
65760;BME280;52496;51.082;5.066;2024-03-22T02:30:21;101954.03;;;11.66;100.00
65760;BME280;52496;51.082;5.066;2024-03-22T02:32:51;101946.97;;;11.65;100.00
65760;BME280;52496;51.082;5.066;2024-03-22T02:35:22;101949.00;;;11.63;100.00
65760;BME280;52496;51.082;5.066;2024-03-22T02:37:52;101952.66;;;11.62;100.00
65760;BME280;52496;51.082;5.066;2024-03-22T02:40:23;101936.59;;;11.62;100.00
65760;BME280;52496;51.082;5.066;2024-03-22T02:42:53;101937.44;;;11.62;100.00
65760;BME280;52496;51.082;5.066;2024-03-22T02:45:23;101934.94;;;11.61;100.00
65760;BME280;52496;51.082;5.066;2024-03-22T02:47:54;101933.25;;;11.60;100.00
65760;BME280;52496;51.082;5.066;2024-03-22T02:50:24;101932.41;;;11.59;100.00
65760;BME280;52496;51.082;5.066;2024-03-22T02:52:55;101930.06;;;11.56;100.00
65760;BME280;52496;51.082;5.066;2024-03-22T02:55:25;101922.00;;;11.56;100.00
65760;BME280;52496;51.082;5.066;2024-03-22T02:57:56;101925.69;;;11.55;100.00
65760;BME280;52496;51.082;5.066;2024-03-22T03:00:27;101916.97;;;11.53;100.00
65760;BME280;52496;51.082;5.066;2024-03-22T03:02:58;101918.19;;;11.51;100.00
65760;BME280;52496;51.082;5.066;2024-03-22T03:05:29;101921.84;;;11.49;100.00
65760;BME280;52496;51.082;5.066;2024-03-22T03:07:59;101924.69;;;11.48;100.00
65760;BME280;52496;51.082;5.066;2024-03-22T03:10:30;101924.84;;;11.46;100.00
65760;BME280;52496;51.082;5.066;2024-03-22T03:13:00;101914.13;;;11.46;100.00
65760;BME280;52496;51.082;5.066;2024-03-22T03:15:30;101915.13;;;11.45;100.00
65760;BME280;52496;51.082;5.066;2024-03-22T03:18:01;101911.63;;;11.45;100.00
65760;BME280;52496;51.082;5.066;2024-03-22T03:20:31;101908.13;;;11.44;100.00
65760;BME280;52496;51.082;5.066;2024-03-22T03:23:02;101905.44;;;11.44;100.00
65760;BME280;52496;51.082;5.066;2024-03-22T03:25:32;101911.78;;;11.43;100.00
65760;BME280;52496;51.082;5.066;2024-03-22T03:28:03;101904.56;;;11.44;100.00
65760;BME280;52496;51.082;5.066;2024-03-22T03:30:34;101900.41;;;11.41;100.00
65760;BME280;52496;51.082;5.066;2024-03-22T03:33:05;101891.34;;;11.42;100.00
65760;BME280;52496;51.082;5.066;2024-03-22T03:35:35;101887.03;;;11.41;100.00
65760;BME280;52496;51.082;5.066;2024-03-22T03:38:05;101882.50;;;11.42;100.00
65760;BME280;52496;51.082;5.066;2024-03-22T03:40:36;101871.59;;;11.43;100.00
65760;BME280;52496;51.082;5.066;2024-03-22T03:43:06;101867.25;;;11.42;100.00
65760;BME280;52496;51.082;5.066;2024-03-22T03:45:37;101854.69;;;11.43;100.00
65760;BME280;52496;51.082;5.066;2024-03-22T03:48:07;101847.50;;;11.43;100.00
65760;BME280;52496;51.082;5.066;2024-03-22T03:50:37;101855.38;;;11.45;100.00
65760;BME280;52496;51.082;5.066;2024-03-22T03:53:08;101845.50;;;11.45;100.00
65760;BME280;52496;51.082;5.066;2024-03-22T03:55:38;101850.03;;;11.45;100.00
65760;BME280;52496;51.082;5.066;2024-03-22T03:58:09;101849.19;;;11.44;100.00
65760;BME280;52496;51.082;5.066;2024-03-22T04:00:39;101849.34;;;11.43;100.00
65760;BME280;52496;51.082;5.066;2024-03-22T04:03:10;101853.03;;;11.42;100.00
65760;BME280;52496;51.082;5.066;2024-03-22T04:05:40;101851.50;;;11.39;100.00
65760;BME280;52496;51.082;5.066;2024-03-22T04:08:11;101847.31;;;11.37;100.00
65760;BME280;52496;51.082;5.066;2024-03-22T04:10:41;101835.78;;;11.36;100.00
65760;BME280;52496;51.082;5.066;2024-03-22T04:13:11;101836.09;;;11.33;100.00
65760;BME280;52496;51.082;5.066;2024-03-22T04:15:42;101829.09;;;11.32;100.00
65760;BME280;52496;51.082;5.066;2024-03-22T04:18:12;101834.44;;;11.32;100.00
65760;BME280;52496;51.082;5.066;2024-03-22T04:20:43;101833.44;;;11.33;100.00
65760;BME280;52496;51.082;5.066;2024-03-22T04:23:14;101836.94;;;11.34;100.00
65760;BME280;52496;51.082;5.066;2024-03-22T04:25:52;101836.59;;;11.37;100.00
65760;BME280;52496;51.082;5.066;2024-03-22T04:28:23;101831.25;;;11.37;100.00
65760;BME280;52496;51.082;5.066;2024-03-22T04:31:05;101839.13;;;11.38;100.00
65760;BME280;52496;51.082;5.066;2024-03-22T04:33:37;101830.78;;;11.41;100.00
65760;BME280;52496;51.082;5.066;2024-03-22T04:36:07;101828.94;;;11.42;100.00
65760;BME280;52496;51.082;5.066;2024-03-22T04:38:39;101820.72;;;11.43;100.00
65760;BME280;52496;51.082;5.066;2024-03-22T04:41:10;101820.72;;;11.43;100.00
65760;BME280;52496;51.082;5.066;2024-03-22T04:43:40;101817.03;;;11.44;100.00
65760;BME280;52496;51.082;5.066;2024-03-22T04:46:11;101821.22;;;11.47;100.00
65760;BME280;52496;51.082;5.066;2024-03-22T04:48:41;101822.91;;;11.48;100.00
65760;BME280;52496;51.082;5.066;2024-03-22T04:51:12;101822.06;;;11.47;100.00
65760;BME280;52496;51.082;5.066;2024-03-22T04:53:42;101828.41;;;11.46;100.00
65760;BME280;52496;51.082;5.066;2024-03-22T04:56:12;101817.03;;;11.44;100.00
65760;BME280;52496;51.082;5.066;2024-03-22T04:58:43;101818.72;;;11.45;100.00
65760;BME280;52496;51.082;5.066;2024-03-22T05:01:13;101820.56;;;11.45;100.00
65760;BME280;52496;51.082;5.066;2024-03-22T05:03:45;101819.53;;;11.46;100.00
65760;BME280;52496;51.082;5.066;2024-03-22T05:06:16;101821.72;;;11.42;100.00
65760;BME280;52496;51.082;5.066;2024-03-22T05:08:46;101821.03;;;11.40;100.00
65760;BME280;52496;51.082;5.066;2024-03-22T05:11:17;101815.69;;;11.40;100.00
65760;BME280;52496;51.082;5.066;2024-03-22T05:13:47;101808.66;;;11.39;100.00
65760;BME280;52496;51.082;5.066;2024-03-22T05:16:18;101813.19;;;11.39;100.00
65760;BME280;52496;51.082;5.066;2024-03-22T05:18:48;101813.69;;;11.42;100.00
65760;BME280;52496;51.082;5.066;2024-03-22T05:21:19;101802.97;;;11.42;100.00
65760;BME280;52496;51.082;5.066;2024-03-22T05:23:49;101808.34;;;11.42;100.00
65760;BME280;52496;51.082;5.066;2024-03-22T05:26:20;101804.63;;;11.43;100.00
65760;BME280;52496;51.082;5.066;2024-03-22T05:28:51;101795.78;;;11.43;100.00
65760;BME280;52496;51.082;5.066;2024-03-22T05:31:21;101800.28;;;11.42;100.00
65760;BME280;52496;51.082;5.066;2024-03-22T05:33:52;101802.16;;;11.42;100.00
65760;BME280;52496;51.082;5.066;2024-03-22T05:36:22;101804.00;;;11.41;100.00
65760;BME280;52496;51.082;5.066;2024-03-22T05:38:52;101810.00;;;11.43;100.00
65760;BME280;52496;51.082;5.066;2024-03-22T05:41:23;101809.50;;;11.40;100.00
65760;BME280;52496;51.082;5.066;2024-03-22T05:43:54;101808.66;;;11.39;100.00
65760;BME280;52496;51.082;5.066;2024-03-22T05:46:24;101804.31;;;11.38;100.00
65760;BME280;52496;51.082;5.066;2024-03-22T05:48:56;101795.41;;;11.38;100.00
65760;BME280;52496;51.082;5.066;2024-03-22T05:51:26;101790.25;;;11.36;100.00
65760;BME280;52496;51.082;5.066;2024-03-22T05:53:57;101794.91;;;11.34;100.00
65760;BME280;52496;51.082;5.066;2024-03-22T05:56:27;101796.63;;;11.35;100.00
65760;BME280;52496;51.082;5.066;2024-03-22T05:58:58;101797.44;;;11.36;100.00
65760;BME280;52496;51.082;5.066;2024-03-22T06:01:30;101797.28;;;11.37;100.00
65760;BME280;52496;51.082;5.066;2024-03-22T06:04:00;101805.81;;;11.41;100.00
65760;BME280;52496;51.082;5.066;2024-03-22T06:06:35;101791.59;;;11.40;100.00
65760;BME280;52496;51.082;5.066;2024-03-22T06:09:05;101791.44;;;11.42;100.00
65760;BME280;52496;51.082;5.066;2024-03-22T06:11:41;101782.38;;;11.43;100.00
65760;BME280;52496;51.082;5.066;2024-03-22T06:14:14;101781.38;;;11.44;100.00
65760;BME280;52496;51.082;5.066;2024-03-22T06:16:44;101783.88;;;11.45;100.00
65760;BME280;52496;51.082;5.066;2024-03-22T06:19:15;101791.59;;;11.48;100.00
65760;BME280;52496;51.082;5.066;2024-03-22T06:21:45;101789.59;;;11.51;100.00
65760;BME280;52496;51.082;5.066;2024-03-22T06:24:16;101790.25;;;11.53;100.00
65760;BME280;52496;51.082;5.066;2024-03-22T06:26:46;101785.56;;;11.55;100.00
65760;BME280;52496;51.082;5.066;2024-03-22T06:29:17;101785.22;;;11.58;100.00
65760;BME280;52496;51.082;5.066;2024-03-22T06:31:47;101781.53;;;11.59;100.00
65760;BME280;52496;51.082;5.066;2024-03-22T06:34:18;101784.88;;;11.61;100.00
65760;BME280;52496;51.082;5.066;2024-03-22T06:36:48;101788.25;;;11.63;100.00
65760;BME280;52496;51.082;5.066;2024-03-22T06:39:20;101787.22;;;11.64;100.00
65760;BME280;52496;51.082;5.066;2024-03-22T06:41:50;101781.69;;;11.65;100.00
65760;BME280;52496;51.082;5.066;2024-03-22T06:44:21;101785.88;;;11.68;100.00
65760;BME280;52496;51.082;5.066;2024-03-22T06:46:51;101787.25;;;11.72;100.00
65760;BME280;52496;51.082;5.066;2024-03-22T06:49:22;101788.06;;;11.73;100.00
65760;BME280;52496;51.082;5.066;2024-03-22T06:51:52;101794.75;;;11.77;100.00
65760;BME280;52496;51.082;5.066;2024-03-22T06:54:23;101792.91;;;11.77;100.00
65760;BME280;52496;51.082;5.066;2024-03-22T06:56:53;101791.09;;;11.78;100.00
65760;BME280;52496;51.082;5.066;2024-03-22T06:59:24;101793.59;;;11.79;100.00
65760;BME280;52496;51.082;5.066;2024-03-22T07:01:54;101802.66;;;11.78;100.00
65760;BME280;52496;51.082;5.066;2024-03-22T07:04:25;101791.25;;;11.76;100.00
65760;BME280;52496;51.082;5.066;2024-03-22T07:06:56;101800.94;;;11.77;100.00
65760;BME280;52496;51.082;5.066;2024-03-22T07:09:26;101789.41;;;11.77;100.00
65760;BME280;52496;51.082;5.066;2024-03-22T07:11:58;101786.56;;;11.78;100.00
65760;BME280;52496;51.082;5.066;2024-03-22T07:14:29;101778.19;;;11.81;100.00
65760;BME280;52496;51.082;5.066;2024-03-22T07:16:59;101781.69;;;11.82;100.00
65760;BME280;52496;51.082;5.066;2024-03-22T07:19:30;101789.75;;;11.82;100.00
65760;BME280;52496;51.082;5.066;2024-03-22T07:22:02;101780.88;;;11.81;100.00
65760;BME280;52496;51.082;5.066;2024-03-22T07:24:32;101782.53;;;11.82;100.00
65760;BME280;52496;51.082;5.066;2024-03-22T07:27:03;101779.84;;;11.82;100.00
65760;BME280;52496;51.082;5.066;2024-03-22T07:29:33;101782.22;;;11.85;100.00
65760;BME280;52496;51.082;5.066;2024-03-22T07:32:04;101781.53;;;11.91;100.00
65760;BME280;52496;51.082;5.066;2024-03-22T07:34:36;101777.50;;;11.96;100.00
65760;BME280;52496;51.082;5.066;2024-03-22T07:37:06;101769.13;;;11.99;100.00
65760;BME280;52496;51.082;5.066;2024-03-22T07:39:37;101771.28;;;12.03;100.00
65760;BME280;52496;51.082;5.066;2024-03-22T07:42:07;101779.50;;;12.10;100.00
65760;BME280;52496;51.082;5.066;2024-03-22T07:44:38;101775.09;;;12.17;100.00
65760;BME280;52496;51.082;5.066;2024-03-22T07:47:08;101778.78;;;12.24;100.00
65760;BME280;52496;51.082;5.066;2024-03-22T07:49:39;101771.38;;;12.26;100.00
65760;BME280;52496;51.082;5.066;2024-03-22T07:52:10;101772.06;;;12.28;100.00
65760;BME280;52496;51.082;5.066;2024-03-22T07:54:40;101777.41;;;12.36;100.00
65760;BME280;52496;51.082;5.066;2024-03-22T07:57:10;101779.03;;;12.46;100.00
65760;BME280;52496;51.082;5.066;2024-03-22T07:59:41;101779.50;;;12.57;100.00
65760;BME280;52496;51.082;5.066;2024-03-22T08:02:14;101772.38;;;12.73;100.00
65760;BME280;52496;51.082;5.066;2024-03-22T08:04:44;101782.84;;;12.91;100.00
65760;BME280;52496;51.082;5.066;2024-03-22T08:07:15;101785.59;;;13.05;100.00
65760;BME280;52496;51.082;5.066;2024-03-22T08:09:45;101786.47;;;13.06;100.00
65760;BME280;52496;51.082;5.066;2024-03-22T08:12:16;101784.28;;;13.01;100.00
65760;BME280;52496;51.082;5.066;2024-03-22T08:14:50;101776.78;;;12.97;100.00
65760;BME280;52496;51.082;5.066;2024-03-22T08:17:21;101776.13;;;12.95;100.00
65760;BME280;52496;51.082;5.066;2024-03-22T08:19:51;101782.50;;;12.94;100.00
65760;BME280;52496;51.082;5.066;2024-03-22T08:22:21;101772.59;;;12.94;100.00
65760;BME280;52496;51.082;5.066;2024-03-22T08:24:52;101776.13;;;12.95;100.00
65760;BME280;52496;51.082;5.066;2024-03-22T08:27:22;101780.94;;;12.99;100.00
65760;BME280;52496;51.082;5.066;2024-03-22T08:29:53;101785.13;;;13.02;100.00
65760;BME280;52496;51.082;5.066;2024-03-22T08:32:23;101781.47;;;12.95;100.00
65760;BME280;52496;51.082;5.066;2024-03-22T08:34:54;101779.03;;;12.85;100.00
65760;BME280;52496;51.082;5.066;2024-03-22T08:37:24;101773.47;;;12.86;100.00
65760;BME280;52496;51.082;5.066;2024-03-22T08:39:56;101760.03;;;12.86;100.00
65760;BME280;52496;51.082;5.066;2024-03-22T08:42:26;101764.41;;;12.88;100.00
65760;BME280;52496;51.082;5.066;2024-03-22T08:44:57;101768.75;;;12.89;100.00
65760;BME280;52496;51.082;5.066;2024-03-22T08:47:27;101768.75;;;12.89;100.00
65760;BME280;52496;51.082;5.066;2024-03-22T08:49:58;101758.69;;;12.91;100.00
65760;BME280;52496;51.082;5.066;2024-03-22T08:52:28;101760.16;;;12.93;100.00
65760;BME280;52496;51.082;5.066;2024-03-22T08:55:00;101761.97;;;13.01;100.00
65760;BME280;52496;51.082;5.066;2024-03-22T08:57:30;101761.84;;;13.17;100.00
65760;BME280;52496;51.082;5.066;2024-03-22T09:00:01;101758.78;;;13.28;100.00
65760;BME280;52496;51.082;5.066;2024-03-22T09:02:31;101756.41;;;13.34;100.00
65760;BME280;52496;51.082;5.066;2024-03-22T09:05:02;101749.84;;;13.36;100.00
65760;BME280;52496;51.082;5.066;2024-03-22T09:07:32;101748.16;;;13.35;100.00
65760;BME280;52496;51.082;5.066;2024-03-22T09:10:03;101737.88;;;13.39;100.00
65760;BME280;52496;51.082;5.066;2024-03-22T09:12:34;101738.47;;;13.49;100.00
65760;BME280;52496;51.082;5.066;2024-03-22T09:15:05;101749.84;;;13.51;100.00
65760;BME280;52496;51.082;5.066;2024-03-22T09:17:36;101746.34;;;13.50;100.00
65760;BME280;52496;51.082;5.066;2024-03-22T09:20:07;101749.22;;;13.49;100.00
65760;BME280;52496;51.082;5.066;2024-03-22T09:22:38;101752.06;;;13.47;100.00
65760;BME280;52496;51.082;5.066;2024-03-22T09:25:09;101745.22;;;13.45;100.00
65760;BME280;52496;51.082;5.066;2024-03-22T09:27:39;101740.88;;;13.44;100.00
65760;BME280;52496;51.082;5.066;2024-03-22T09:30:10;101736.31;;;13.44;100.00
65760;BME280;52496;51.082;5.066;2024-03-22T09:32:41;101737.16;;;13.45;100.00
65760;BME280;52496;51.082;5.066;2024-03-22T09:35:12;101734.66;;;13.43;100.00
65760;BME280;52496;51.082;5.066;2024-03-22T09:37:47;101736.16;;;13.46;100.00
65760;BME280;52496;51.082;5.066;2024-03-22T09:40:18;101730.78;;;13.46;100.00
65760;BME280;52496;51.082;5.066;2024-03-22T09:42:48;101724.38;;;13.47;100.00
65760;BME280;52496;51.082;5.066;2024-03-22T09:45:20;101727.91;;;13.47;100.00
65760;BME280;52496;51.082;5.066;2024-03-22T09:47:52;101731.03;;;13.51;100.00
65760;BME280;52496;51.082;5.066;2024-03-22T09:50:26;101724.94;;;13.57;100.00
65760;BME280;52496;51.082;5.066;2024-03-22T09:52:57;101717.16;;;13.62;100.00
65760;BME280;52496;51.082;5.066;2024-03-22T09:55:27;101722.00;;;13.67;100.00
65760;BME280;52496;51.082;5.066;2024-03-22T09:57:59;101721.28;;;13.73;100.00
65760;BME280;52496;51.082;5.066;2024-03-22T10:00:30;101707.94;;;13.80;100.00
65760;BME280;52496;51.082;5.066;2024-03-22T10:03:03;101721.28;;;13.88;100.00
65760;BME280;52496;51.082;5.066;2024-03-22T10:05:34;101713.13;;;13.96;100.00
65760;BME280;52496;51.082;5.066;2024-03-22T10:08:05;101718.97;;;13.99;100.00
65760;BME280;52496;51.082;5.066;2024-03-22T10:10:38;101704.06;;;13.97;100.00
65760;BME280;52496;51.082;5.066;2024-03-22T10:13:09;101706.00;;;14.03;100.00
65760;BME280;52496;51.082;5.066;2024-03-22T10:15:39;101716.56;;;14.19;100.00
65760;BME280;52496;51.082;5.066;2024-03-22T10:18:10;101709.94;;;14.37;100.00
65760;BME280;52496;51.082;5.066;2024-03-22T10:20:41;101700.84;;;14.38;100.00
65760;BME280;52496;51.082;5.066;2024-03-22T10:23:12;101705.78;;;14.34;100.00
65760;BME280;52496;51.082;5.066;2024-03-22T10:25:42;101686.19;;;14.40;100.00
65760;BME280;52496;51.082;5.066;2024-03-22T10:28:13;101697.13;;;14.39;100.00
65760;BME280;52496;51.082;5.066;2024-03-22T10:30:44;101698.91;;;14.32;100.00
65760;BME280;52496;51.082;5.066;2024-03-22T10:33:15;101706.53;;;14.28;100.00
65760;BME280;52496;51.082;5.066;2024-03-22T10:35:46;101703.25;;;14.33;100.00
65760;BME280;52496;51.082;5.066;2024-03-22T10:38:18;101693.53;;;14.32;100.00
65760;BME280;52496;51.082;5.066;2024-03-22T10:40:49;101689.94;;;14.25;100.00
65760;BME280;52496;51.082;5.066;2024-03-22T10:43:21;101690.69;;;14.18;100.00
65760;BME280;52496;51.082;5.066;2024-03-22T10:45:53;101688.09;;;14.10;100.00
65760;BME280;52496;51.082;5.066;2024-03-22T10:48:30;101683.00;;;14.15;100.00
65760;BME280;52496;51.082;5.066;2024-03-22T10:51:01;101673.78;;;14.25;100.00
65760;BME280;52496;51.082;5.066;2024-03-22T10:53:33;101677.00;;;14.35;100.00
65760;BME280;52496;51.082;5.066;2024-03-22T10:56:06;101680.22;;;14.45;100.00
65760;BME280;52496;51.082;5.066;2024-03-22T10:58:41;101682.28;;;14.43;100.00
65760;BME280;52496;51.082;5.066;2024-03-22T11:01:25;101684.69;;;14.38;100.00
65760;BME280;52496;51.082;5.066;2024-03-22T11:04:03;101687.09;;;14.33;100.00
65760;BME280;52496;51.082;5.066;2024-03-22T11:06:36;101678.22;;;14.32;100.00
65760;BME280;52496;51.082;5.066;2024-03-22T11:09:08;101676.34;;;14.33;100.00
65760;BME280;52496;51.082;5.066;2024-03-22T11:11:41;101682.09;;;14.30;100.00
65760;BME280;52496;51.082;5.066;2024-03-22T11:14:11;101682.31;;;14.28;100.00
65760;BME280;52496;51.082;5.066;2024-03-22T11:16:49;101681.56;;;14.19;100.00
65760;BME280;52496;51.082;5.066;2024-03-22T11:19:19;101672.31;;;14.07;100.00
65760;BME280;52496;51.082;5.066;2024-03-22T11:21:50;101670.19;;;14.03;100.00
65760;BME280;52496;51.082;5.066;2024-03-22T11:24:20;101671.03;;;14.03;100.00
65760;BME280;52496;51.082;5.066;2024-03-22T11:26:51;101667.69;;;14.01;100.00
65760;BME280;52496;51.082;5.066;2024-03-22T11:29:21;101667.03;;;13.99;100.00
65760;BME280;52496;51.082;5.066;2024-03-22T11:31:52;101669.34;;;14.02;100.00
65760;BME280;52496;51.082;5.066;2024-03-22T11:34:22;101660.72;;;14.07;100.00
65760;BME280;52496;51.082;5.066;2024-03-22T11:36:54;101657.84;;;14.08;100.00
65760;BME280;52496;51.082;5.066;2024-03-22T11:39:24;101661.94;;;14.04;100.00
65760;BME280;52496;51.082;5.066;2024-03-22T11:41:55;101649.16;;;14.06;100.00
65760;BME280;52496;51.082;5.066;2024-03-22T11:44:26;101643.19;;;14.11;100.00
65760;BME280;52496;51.082;5.066;2024-03-22T11:46:56;101645.78;;;14.04;100.00
65760;BME280;52496;51.082;5.066;2024-03-22T11:49:27;101647.22;;;14.00;100.00
65760;BME280;52496;51.082;5.066;2024-03-22T11:51:57;101645.63;;;13.91;100.00
65760;BME280;52496;51.082;5.066;2024-03-22T11:54:28;101638.13;;;13.86;100.00
65760;BME280;52496;51.082;5.066;2024-03-22T11:56:58;101644.97;;;13.89;100.00
65760;BME280;52496;51.082;5.066;2024-03-22T11:59:29;101628.28;;;13.93;100.00
65760;BME280;52496;51.082;5.066;2024-03-22T12:02:00;101629.59;;;13.97;100.00
65760;BME280;52496;51.082;5.066;2024-03-22T12:04:30;101620.03;;;13.95;100.00
65760;BME280;52496;51.082;5.066;2024-03-22T12:07:01;101624.50;;;13.88;100.00
65760;BME280;52496;51.082;5.066;2024-03-22T12:09:31;101620.50;;;13.84;100.00
65760;BME280;52496;51.082;5.066;2024-03-22T12:12:04;101629.31;;;13.77;100.00
65760;BME280;52496;51.082;5.066;2024-03-22T12:14:35;101623.84;;;13.71;100.00
65760;BME280;52496;51.082;5.066;2024-03-22T12:17:06;101613.38;;;13.61;100.00
65760;BME280;52496;51.082;5.066;2024-03-22T12:19:37;101608.56;;;13.57;100.00
65760;BME280;52496;51.082;5.066;2024-03-22T12:22:07;101604.22;;;13.56;100.00
65760;BME280;52496;51.082;5.066;2024-03-22T12:24:38;101606.59;;;13.50;100.00
65760;BME280;52496;51.082;5.066;2024-03-22T12:27:08;101603.66;;;13.45;100.00
65760;BME280;52496;51.082;5.066;2024-03-22T12:29:39;101596.78;;;13.43;100.00
65760;BME280;52496;51.082;5.066;2024-03-22T12:32:09;101599.84;;;13.40;100.00
65760;BME280;52496;51.082;5.066;2024-03-22T12:34:40;101590.66;;;13.34;100.00
65760;BME280;52496;51.082;5.066;2024-03-22T12:37:10;101577.41;;;13.32;100.00
65760;BME280;52496;51.082;5.066;2024-03-22T12:39:41;101580.09;;;13.32;100.00
65760;BME280;52496;51.082;5.066;2024-03-22T12:42:12;101583.28;;;13.36;100.00
65760;BME280;52496;51.082;5.066;2024-03-22T12:44:42;101580.75;;;13.35;100.00
65760;BME280;52496;51.082;5.066;2024-03-22T12:47:13;101571.03;;;13.34;100.00
65760;BME280;52496;51.082;5.066;2024-03-22T12:49:44;101568.72;;;13.30;100.00
65760;BME280;52496;51.082;5.066;2024-03-22T12:52:15;101571.13;;;13.25;100.00
65760;BME280;52496;51.082;5.066;2024-03-22T12:54:45;101564.06;;;13.24;100.00
65760;BME280;52496;51.082;5.066;2024-03-22T12:57:16;101562.03;;;13.26;100.00
65760;BME280;52496;51.082;5.066;2024-03-22T12:59:46;101565.25;;;13.22;100.00